Home   Weather   Israel   Tel Aviv   Past weeks
Flag for Israel

Past Weather in Tel Aviv, Israel — Yesterday and Last 2 Weeks

Currently: 72 °F. Clear. (Weather station: Ben Gurion International Airport, Israel). See more current weather

Past Weather in Tel Aviv — Graph

°F

Tel Aviv Temperature Yesterday

Maximum temperature yesterday: 91 °F (at 1:20 pm)
Minimum temperature yesterday: 72 °F (at 5:20 am)
Average temperature yesterday: 80 °F

High & Low Weather Summary for the Past Weeks

 TemperatureHumidityPressure
High91 °F (Sep 24, 1:20 pm)79% (Sep 11, 1:20 am)29.98 "Hg (Sep 11, 1:20 am)
Low72 °F (Sep 12, 6:20 am)27% (Sep 24, 11:50 am)29.71 "Hg (Sep 12, 12:50 pm)
Average81 °F62%29.82 "Hg
* Reported Sep 10 4:20 am — Sep 25 4:20 am, Tel Aviv. Weather by CustomWeather, © 2022

Note: Actual official high and low records may vary slightly from our data, if they occured in-between our weather recording intervals... More about our weather records

Tel Aviv Weather History for the Previous 24 Hours

Scroll right to see more
 ConditionsComfort  
Time TempWeatherWind HumidityBarometerVisibility
4:20 am
Sun, Sep 25
72 °FClear.2 mph65%29.95 "Hg10 mi
2:20 am75 °FClear.2 mph61%29.95 "Hg10 mi
1:20 am75 °FClear.3 mph61%29.95 "Hg10 mi
11:50 pm
Sat, Sep 24
77 °FClear.6 mph57%29.95 "Hg10 mi
11:20 pm77 °FClear.7 mph57%29.95 "Hg10 mi
10:20 pm79 °FClear.9 mph54%29.95 "Hg10 mi
9:20 pm79 °FClear.9 mph54%29.95 "Hg10 mi
8:20 pm81 °FClear.13 mph51%29.95 "Hg10 mi
7:50 pm81 °FClear.12 mph54%29.95 "Hg10 mi
7:20 pm81 °FClear.14 mph54%29.95 "Hg10 mi
6:50 pm82 °FClear.15 mph51%29.92 "Hg10 mi
6:20 pm82 °FSunny.13 mph48%29.92 "Hg10 mi
5:20 pm86 °FSunny.14 mph35%29.92 "Hg10 mi
4:20 pm88 °FSunny.15 mph35%29.92 "Hg10 mi
3:50 pm90 °FSunny.14 mph31%29.92 "Hg10 mi
3:20 pm88 °FSunny.14 mph35%29.92 "Hg10 mi
2:20 pm90 °FSunny.14 mph38%29.92 "Hg10 mi
1:20 pm91 °FSunny.9 mph36%29.92 "Hg10 mi
11:50 am90 °FPassing clouds.6 mph27%29.95 "HgN/A
11:20 am88 °FSunny.7 mph29%29.95 "Hg10 mi
10:20 am86 °FSunny.9 mph33%29.98 "Hg10 mi
9:20 am81 °FSunny.8 mph42%29.98 "Hg10 mi
8:50 am79 °FSunny.5 mph51%29.98 "Hg10 mi
8:20 am77 °FSunny.2 mph54%29.98 "Hg10 mi
7:50 am73 °FSunny.2 mph61%29.98 "Hg10 mi
7:20 am72 °FSunny.2 mph65%29.95 "Hg10 mi
6:50 am72 °FSunny.2 mph65%29.95 "Hg10 mi
6:20 am72 °FClear.2 mph65%29.95 "Hg10 mi
Weather by CustomWeather, © 2022

See weather overview